Time;durP1;ratioP1;P1;durP2;ratioP2;P2;SDS_P1;SDS_P2;PMS_P1;PMS_P2;Temp;Humidity;BMP_temperature;BMP_pressure;BME280_temperature;BME280_humidity;BME280_pressure;Samples;Min_cycle;Max_cycle;Signal;HPM_P1;HPM_P2
2023/07/27 00:02:09;;;;;;;11.30;6.65;;;13.30;99.90;;;;;;4962667;28;20081;-67
2023/07/27 00:04:34;;;;;;;11.35;6.38;;;13.60;99.90;;;;;;4978771;28;20103;-66
2023/07/27 00:07:00;;;;;;;10.70;6.57;;;14.00;99.90;;;;;;4991206;28;20511;-66
2023/07/27 00:09:26;;;;;;;12.73;7.00;;;13.40;99.90;;;;;;4992435;28;20511;-66
2023/07/27 00:11:51;;;;;;;10.75;6.20;;;13.70;99.90;;;;;;4985873;28;20058;-66
2023/07/27 00:14:17;;;;;;;13.15;6.95;;;13.70;99.90;;;;;;4984841;28;20038;-66
2023/07/27 00:16:43;;;;;;;12.48;7.43;;;13.20;99.90;;;;;;4981216;28;20117;-66
2023/07/27 00:19:08;;;;;;;9.77;6.22;;;14.10;99.90;;;;;;4988285;28;20038;-67
2023/07/27 00:21:34;;;;;;;11.40;6.15;;;13.70;99.90;;;;;;4982828;28;20027;-66
2023/07/27 00:23:59;;;;;;;10.95;6.55;;;13.10;99.90;;;;;;4990665;28;20057;-66
2023/07/27 00:26:25;;;;;;;10.48;6.57;;;13.60;99.90;;;;;;4991529;28;20043;-66
2023/07/27 00:28:51;;;;;;;12.32;7.07;;;13.10;99.90;;;;;;4990294;28;20046;-66
2023/07/27 00:31:16;;;;;;;13.05;6.97;;;13.70;99.90;;;;;;4988132;28;20505;-67
2023/07/27 00:33:42;;;;;;;10.20;6.68;;;13.10;99.90;;;;;;4987294;28;20194;-66
2023/07/27 00:36:08;;;;;;;12.02;6.82;;;13.00;99.90;;;;;;4983224;28;20069;-66
2023/07/27 00:38:33;;;;;;;11.93;7.13;;;13.20;99.90;;;;;;4991501;28;20041;-66
2023/07/27 00:40:59;;;;;;;12.82;7.38;;;13.70;99.90;;;;;;4984710;28;20114;-66
2023/07/27 00:43:25;;;;;;;12.43;6.85;;;13.20;99.90;;;;;;4986341;28;20069;-66
2023/07/27 00:45:51;;;;;;;14.00;7.43;;;13.50;99.90;;;;;;4982863;28;20404;-66
2023/07/27 00:48:17;;;;;;;11.65;6.45;;;13.00;99.90;;;;;;4980962;28;20396;-66
2023/07/27 00:50:44;;;;;;;10.93;6.32;;;13.40;99.90;;;;;;4983394;28;20045;-67
2023/07/27 00:53:10;;;;;;;13.68;8.10;;;13.50;99.90;;;;;;4991703;28;20038;-66
2023/07/27 00:55:36;;;;;;;11.50;7.18;;;13.80;99.90;;;;;;4993818;28;20060;-66
2023/07/27 00:58:02;;;;;;;9.18;5.63;;;;;;;;;;4978855;28;20038;-67
2023/07/27 01:00:30;;;;;;;10.88;6.15;;;13.10;99.90;;;;;;4981792;28;20386;-66
2023/07/27 01:02:56;;;;;;;10.15;5.97;;;13.40;99.90;;;;;;4979991;28;20038;-67
2023/07/27 01:05:22;;;;;;;12.77;6.13;;;13.70;99.90;;;;;;4981363;28;20039;-67
2023/07/27 01:07:48;;;;;;;12.43;6.82;;;13.90;99.90;;;;;;4990428;28;20057;-66
2023/07/27 01:10:14;;;;;;;12.95;6.57;;;13.80;99.90;;;;;;4995771;28;20042;-66
2023/07/27 01:12:49;;;;;;;12.48;6.32;;;13.70;99.90;;;;;;4986036;28;20050;-66
2023/07/27 01:15:17;;;;;;;10.43;6.63;;;13.50;99.90;;;;;;4988028;28;20077;-67
2023/07/27 01:17:54;;;;;;;11.88;7.38;;;13.30;99.90;;;;;;4976630;28;20042;-66
2023/07/27 01:20:32;;;;;;;12.95;7.13;;;13.90;99.90;;;;;;4982232;28;20089;-66
2023/07/27 01:23:00;;;;;;;11.65;6.65;;;13.80;99.90;;;;;;4997152;28;20126;-66
2023/07/27 01:25:53;;;;;;;13.48;6.22;;;13.70;99.90;;;;;;4981639;28;20520;-67
2023/07/27 01:28:52;;;;;;;11.15;6.10;;;13.90;99.90;;;;;;5006260;28;20045;-66
2023/07/27 01:31:27;;;;;;;12.65;5.57;;;13.50;99.90;;;;;;4992372;28;20038;-66
2023/07/27 01:34:05;;;;;;;11.45;6.00;;;13.50;99.90;;;;;;4975334;28;20039;-66
2023/07/27 01:36:38;;;;;;;11.27;6.55;;;13.60;99.90;;;;;;4980592;28;20042;-66
2023/07/27 01:39:07;;;;;;;12.23;6.55;;;14.10;99.90;;;;;;4979988;28;20400;-66
2023/07/27 01:41:33;;;;;;;13.52;7.18;;;13.90;99.90;;;;;;4976160;28;20117;-66
2023/07/27 01:44:01;;;;;;;11.48;6.97;;;;;;;;;;4991545;28;20051;-66
2023/07/27 01:46:30;;;;;;;13.23;6.97;;;13.20;99.90;;;;;;4978828;28;20061;-68
2023/07/27 01:48:56;;;;;;;12.40;7.57;;;14.00;99.90;;;;;;4990289;28;20120;-66
2023/07/27 01:51:23;;;;;;;11.88;7.70;;;13.80;99.90;;;;;;4985264;28;20034;-66
2023/07/27 01:53:50;;;;;;;12.02;6.93;;;13.60;99.90;;;;;;4979998;28;20039;-66
2023/07/27 01:56:17;;;;;;;13.75;7.88;;;13.90;99.90;;;;;;4983462;28;20030;-66
2023/07/27 01:58:44;;;;;;;13.57;7.70;;;14.10;99.90;;;;;;4973245;28;20441;-66
2023/07/27 02:01:10;;;;;;;12.05;7.05;;;13.70;99.90;;;;;;4988169;28;20046;-66
2023/07/27 02:03:36;;;;;;;11.88;7.60;;;13.60;99.90;;;;;;4987581;28;20042;-65
2023/07/27 02:06:02;;;;;;;10.40;6.53;;;13.50;99.90;;;;;;4981730;28;20046;-66
2023/07/27 02:08:28;;;;;;;11.60;6.97;;;13.30;99.90;;;;;;4990907;28;20542;-66
2023/07/27 02:10:59;;;;;;;10.80;6.50;;;13.40;99.90;;;;;;4977316;28;20038;-66
2023/07/27 02:13:57;;;;;;;12.27;6.97;;;13.50;99.90;;;;;;4986325;28;20046;-66
2023/07/27 02:17:05;;;;;;;10.98;6.82;;;13.70;99.90;;;;;;4983967;28;20046;-66
2023/07/27 02:19:33;;;;;;;11.18;6.75;;;13.30;99.90;;;;;;4985506;28;20054;-66
2023/07/27 02:22:00;;;;;;;11.30;6.65;;;14.30;99.90;;;;;;4978298;28;20500;-66
2023/07/27 02:24:28;;;;;;;11.18;6.05;;;13.90;99.90;;;;;;4984921;28;20467;-66
2023/07/27 02:26:55;;;;;;;11.93;7.13;;;14.00;99.90;;;;;;4989583;28;20403;-66
2023/07/27 02:29:20;;;;;;;10.80;6.65;;;14.00;99.90;;;;;;4992434;28;20044;-67
2023/07/27 02:31:46;;;;;;;11.48;6.82;;;14.00;99.90;;;;;;4983142;28;20042;-66
2023/07/27 02:34:11;;;;;;;10.25;6.70;;;13.20;99.90;;;;;;4982784;28;20046;-66
2023/07/27 02:36:37;;;;;;;12.00;7.60;;;13.90;99.90;;;;;;4983596;28;20074;-66
2023/07/27 02:39:03;;;;;;;12.27;7.20;;;13.50;99.90;;;;;;4980048;28;20050;-67
2023/07/27 02:41:28;;;;;;;13.20;7.82;;;13.70;99.90;;;;;;4978667;28;20113;-66
2023/07/27 02:43:54;;;;;;;10.75;6.40;;;13.90;99.90;;;;;;4989456;28;20213;-66
2023/07/27 02:46:19;;;;;;;12.18;6.93;;;13.50;99.90;;;;;;4990657;28;20114;-66
2023/07/27 02:48:45;;;;;;;11.55;7.07;;;13.70;99.90;;;;;;4990557;28;20049;-67
2023/07/27 02:51:11;;;;;;;12.07;7.22;;;14.30;99.90;;;;;;4973060;28;20183;-66
2023/07/27 02:53:36;;;;;;;11.68;7.07;;;13.90;99.90;;;;;;4988052;28;20043;-67
2023/07/27 02:56:06;;;;;;;12.90;6.55;;;13.70;99.90;;;;;;4980746;28;20043;-66
2023/07/27 02:58:31;;;;;;;11.85;6.50;;;14.40;99.90;;;;;;4981719;28;20069;-67
2023/07/27 03:00:59;;;;;;;10.65;6.63;;;13.90;99.90;;;;;;4989977;28;20070;-66
2023/07/27 03:03:26;;;;;;;12.30;6.35;;;14.20;99.90;;;;;;4982266;28;20041;-66
2023/07/27 03:06:02;;;;;;;11.00;7.05;;;14.00;99.90;;;;;;4995463;28;20042;-66
2023/07/27 03:08:28;;;;;;;21.05;7.18;;;14.10;99.90;;;;;;4971757;28;20530;-66
2023/07/27 03:10:54;;;;;;;10.48;6.80;;;14.10;99.90;;;;;;4987015;28;20049;-66
2023/07/27 03:13:20;;;;;;;9.50;5.80;;;14.10;99.90;;;;;;4988722;28;20420;-66
2023/07/27 03:15:46;;;;;;;12.27;6.45;;;13.90;99.90;;;;;;4990160;28;20359;-66
2023/07/27 03:18:12;;;;;;;12.60;6.57;;;13.70;99.90;;;;;;4975963;28;20077;-66
2023/07/27 03:20:42;;;;;;;10.73;6.47;;;14.30;99.90;;;;;;4984951;28;20058;-66
2023/07/27 03:23:08;;;;;;;10.25;6.72;;;14.30;99.90;;;;;;4990840;28;20069;-67
2023/07/27 03:25:35;;;;;;;10.20;6.75;;;14.30;99.90;;;;;;4987652;28;20038;-67
2023/07/27 03:28:02;;;;;;;12.60;7.07;;;14.10;99.90;;;;;;4988133;28;20496;-66
2023/07/27 03:30:28;;;;;;;10.43;6.00;;;13.60;99.90;;;;;;4990338;28;20161;-66
2023/07/27 03:32:54;;;;;;;11.48;6.53;;;14.70;99.90;;;;;;4987851;28;20125;-66
2023/07/27 03:35:20;;;;;;;11.90;6.93;;;14.10;99.90;;;;;;4978624;28;20121;-66
2023/07/27 03:37:46;;;;;;;11.27;6.18;;;14.10;99.90;;;;;;4983679;28;20196;-66
2023/07/27 03:40:11;;;;;;;12.38;7.10;;;14.10;99.90;;;;;;4988296;28;20560;-66
2023/07/27 03:42:37;;;;;;;11.63;6.78;;;14.60;99.90;;;;;;4995836;28;20536;-67
2023/07/27 03:45:03;;;;;;;13.07;7.18;;;14.20;99.90;;;;;;4989548;28;20038;-67
2023/07/27 03:47:29;;;;;;;12.65;7.15;;;14.30;99.90;;;;;;4985552;28;20089;-66
2023/07/27 03:49:55;;;;;;;11.48;7.07;;;14.10;99.90;;;;;;4985169;28;20038;-67
2023/07/27 03:52:20;;;;;;;12.80;7.50;;;14.50;99.90;;;;;;4987212;28;20044;-67
2023/07/27 03:54:46;;;;;;;12.80;7.30;;;14.30;99.90;;;;;;4987750;28;20061;-66
2023/07/27 03:57:12;;;;;;;13.95;8.32;;;14.60;99.90;;;;;;4984599;28;20034;-67
2023/07/27 03:59:37;;;;;;;11.45;7.13;;;14.00;99.90;;;;;;4975943;28;20461;-67
2023/07/27 04:02:03;;;;;;;13.15;7.38;;;14.80;1.00;;;;;;4977684;28;20031;-65
2023/07/27 04:04:29;;;;;;;12.75;7.40;;;14.70;1.00;;;;;;4984728;28;20500;-67
2023/07/27 04:06:56;;;;;;;13.10;7.80;;;;;;;;;;4979329;28;20030;-67
2023/07/27 04:09:22;;;;;;;13.10;7.70;;;14.70;1.00;;;;;;4989454;28;20038;-66
2023/07/27 04:11:47;;;;;;;14.38;8.52;;;13.90;1.00;;;;;;4988724;28;20130;-67
2023/07/27 04:14:13;;;;;;;13.02;8.27;;;14.30;1.00;;;;;;4984850;28;20463;-67
2023/07/27 04:16:39;;;;;;;12.60;7.70;;;14.20;1.00;;;;;;4992179;28;20334;-67
2023/07/27 04:19:04;;;;;;;15.10;8.50;;;13.90;1.00;;;;;;4981257;28;20043;-67
2023/07/27 04:21:30;;;;;;;14.30;8.95;;;14.20;1.00;;;;;;4988285;28;20022;-67
2023/07/27 04:23:56;;;;;;;16.70;9.25;;;14.40;1.00;;;;;;4989577;28;20416;-66
2023/07/27 04:26:21;;;;;;;15.80;8.68;;;14.20;1.00;;;;;;4981760;28;21241;-67
2023/07/27 04:28:47;;;;;;;16.77;10.35;;;14.20;1.00;;;;;;4983072;28;20448;-67
2023/07/27 04:31:12;;;;;;;13.45;8.68;;;14.30;1.00;;;;;;4994434;28;20038;-66
2023/07/27 04:33:38;;;;;;;15.15;9.10;;;14.80;1.00;;;;;;4984613;28;20047;-66
2023/07/27 04:36:04;;;;;;;17.27;9.30;;;14.30;1.00;;;;;;4992996;28;20038;-67
2023/07/27 04:38:30;;;;;;;15.30;9.20;;;14.40;1.00;;;;;;4992901;28;20038;-67
2023/07/27 04:40:55;;;;;;;15.63;9.30;;;14.40;1.00;;;;;;4993228;28;20061;-67
2023/07/27 04:43:21;;;;;;;18.13;9.95;;;14.60;1.00;;;;;;4992652;28;20137;-66
2023/07/27 04:45:47;;;;;;;15.43;10.18;;;14.90;1.00;;;;;;4992989;28;20038;-67
2023/07/27 04:48:12;;;;;;;15.40;9.38;;;14.40;1.00;;;;;;4990882;28;20054;-67
2023/07/27 04:50:38;;;;;;;15.82;10.07;;;14.60;1.00;;;;;;4993042;28;20113;-68
2023/07/27 04:53:04;;;;;;;15.68;10.52;;;14.70;1.00;;;;;;4991708;28;20406;-68
2023/07/27 04:55:29;;;;;;;17.20;10.70;;;14.70;4.20;;;;;;4981493;28;20049;-66
2023/07/27 04:57:55;;;;;;;17.58;10.93;;;14.60;2.60;;;;;;4987657;28;20124;-68
2023/07/27 05:00:21;;;;;;;18.52;10.68;;;14.50;5.00;;;;;;4992191;28;20035;-68
2023/07/27 05:02:46;;;;;;;16.30;10.05;;;14.70;10.60;;;;;;4992048;28;20516;-67
2023/07/27 05:05:12;;;;;;;16.30;10.25;;;14.50;16.60;;;;;;4993519;28;20069;-67
2023/07/27 05:07:38;;;;;;;18.10;9.85;;;14.00;18.50;;;;;;4981429;28;20528;-67
2023/07/27 05:10:04;;;;;;;15.20;10.13;;;14.30;19.70;;;;;;4989555;28;20484;-67
2023/07/27 05:12:32;;;;;;;14.75;9.48;;;;;;;;;;4985850;28;20500;-67
2023/07/27 05:14:58;;;;;;;15.52;9.45;;;14.60;22.00;;;;;;4989073;28;20054;-67
2023/07/27 05:17:24;;;;;;;16.27;9.10;;;14.30;25.70;;;;;;4991970;28;20052;-67
2023/07/27 05:19:50;;;;;;;15.65;9.75;;;14.00;25.40;;;;;;4990675;28;20034;-67
2023/07/27 05:22:15;;;;;;;14.07;9.02;;;14.30;34.40;;;;;;4976742;28;20105;-67
2023/07/27 05:24:41;;;;;;;14.88;9.05;;;14.20;27.20;;;;;;4992285;28;20038;-66
2023/07/27 05:27:06;;;;;;;14.45;9.60;;;14.50;29.90;;;;;;4985523;28;20207;-68
2023/07/27 05:29:32;;;;;;;13.20;8.88;;;14.70;28.00;;;;;;4991588;28;20085;-67
2023/07/27 05:31:58;;;;;;;14.50;9.68;;;14.60;30.80;;;;;;4984972;28;20090;-67
2023/07/27 05:34:24;;;;;;;16.58;9.77;;;14.50;26.90;;;;;;4989649;28;20038;-67
2023/07/27 05:36:49;;;;;;;17.02;10.18;;;14.30;29.40;;;;;;4997176;28;20099;-67
2023/07/27 05:39:15;;;;;;;13.57;8.77;;;14.50;32.20;;;;;;4991613;28;20049;-68
2023/07/27 05:41:41;;;;;;;14.68;9.23;;;14.80;33.70;;;;;;4990733;28;20399;-67
2023/07/27 05:44:06;;;;;;;12.77;9.23;;;14.70;35.70;;;;;;4990228;28;20492;-67
2023/07/27 05:46:32;;;;;;;13.15;8.70;;;14.50;43.60;;;;;;4990542;28;20034;-67
2023/07/27 05:48:57;;;;;;;14.00;9.07;;;14.70;37.60;;;;;;4991996;28;20038;-67
2023/07/27 05:51:23;;;;;;;11.98;7.63;;;14.90;36.30;;;;;;4967371;28;20042;-67
2023/07/27 05:53:49;;;;;;;14.25;8.13;;;14.90;44.00;;;;;;4989625;28;20050;-67
2023/07/27 05:56:14;;;;;;;12.90;8.02;;;14.60;48.20;;;;;;4992742;28;20052;-67
2023/07/27 05:58:40;;;;;;;15.93;8.88;;;14.80;40.50;;;;;;4989566;28;20114;-67
2023/07/27 06:01:06;;;;;;;16.48;9.25;;;14.90;40.10;;;;;;4984272;28;20388;-67
2023/07/27 06:03:34;;;;;;;12.43;8.05;;;14.50;42.80;;;;;;4982503;28;20046;-67
2023/07/27 06:05:59;;;;;;;12.98;8.32;;;14.40;42.80;;;;;;4991587;28;20058;-67
2023/07/27 06:08:25;;;;;;;13.13;9.00;;;;;;;;;;4986190;28;20038;-67
2023/07/27 06:11:06;;;;;;;14.13;7.50;;;14.70;45.10;;;;;;4983709;28;20121;-67
2023/07/27 06:13:33;;;;;;;13.10;7.43;;;14.60;48.40;;;;;;4983191;28;20054;-67
2023/07/27 06:15:59;;;;;;;14.60;8.43;;;14.80;60.00;;;;;;4991370;28;20142;-67
2023/07/27 06:18:25;;;;;;;11.77;7.78;;;14.90;66.50;;;;;;4992441;28;20038;-68
2023/07/27 06:20:50;;;;;;;11.98;7.22;;;14.80;61.10;;;;;;4982140;28;20045;-67
2023/07/27 06:23:16;;;;;;;12.00;7.97;;;15.30;64.50;;;;;;4990246;28;20030;-67
2023/07/27 06:25:45;;;;;;;12.10;7.55;;;14.70;75.00;;;;;;4979917;28;20035;-67
2023/07/27 06:28:11;;;;;;;14.82;7.72;;;14.90;83.10;;;;;;4989164;28;20034;-67
2023/07/27 06:30:38;;;;;;;17.02;8.00;;;15.50;85.10;;;;;;4990898;28;20396;-67
2023/07/27 06:33:05;;;;;;;13.18;7.18;;;15.00;89.40;;;;;;4991277;28;20066;-68
2023/07/27 06:35:30;;;;;;;11.30;7.25;;;15.20;92.90;;;;;;4996645;28;20076;-67
2023/07/27 06:37:56;;;;;;;12.80;7.07;;;14.90;89.50;;;;;;4990518;28;20110;-67
2023/07/27 06:40:22;;;;;;;9.35;7.00;;;14.80;93.20;;;;;;4995907;28;20034;-65
2023/07/27 06:42:48;;;;;;;12.43;7.70;;;14.70;91.70;;;;;;4989849;28;20050;-65
2023/07/27 06:45:13;;;;;;;11.23;7.47;;;15.10;94.40;;;;;;4984892;28;20400;-67
2023/07/27 06:47:39;;;;;;;10.85;6.40;;;15.30;99.70;;;;;;4986994;28;20268;-66
2023/07/27 06:50:06;;;;;;;11.07;6.43;;;15.30;99.90;;;;;;4986043;28;20042;-66
2023/07/27 06:52:31;;;;;;;10.65;6.28;;;15.40;99.90;;;;;;4980859;28;20034;-66
2023/07/27 06:54:57;;;;;;;9.40;6.53;;;15.20;99.90;;;;;;4990642;28;20081;-66
2023/07/27 06:57:25;;;;;;;12.23;6.80;;;15.70;99.90;;;;;;4995510;28;20034;-65
2023/07/27 06:59:51;;;;;;;8.90;6.10;;;15.70;99.90;;;;;;4985708;28;20030;-66
2023/07/27 07:02:17;;;;;;;10.40;6.15;;;15.50;99.90;;;;;;4981282;28;20028;-65
2023/07/27 07:04:43;;;;;;;9.77;6.22;;;15.80;99.90;;;;;;4986730;28;20401;-64
2023/07/27 07:07:09;;;;;;;9.85;5.95;;;15.30;99.90;;;;;;4979527;28;20114;-65
2023/07/27 07:09:35;;;;;;;9.98;6.30;;;16.00;99.90;;;;;;4990254;28;20116;-65
2023/07/27 07:12:05;;;;;;;10.95;5.85;;;15.70;99.90;;;;;;4990561;28;20054;-66
2023/07/27 07:14:31;;;;;;;10.15;6.22;;;16.10;99.90;;;;;;4991606;28;20504;-66
2023/07/27 07:16:58;;;;;;;10.75;6.90;;;16.10;99.90;;;;;;4989707;28;20034;-66
2023/07/27 07:19:24;;;;;;;11.90;6.53;;;15.90;99.90;;;;;;4987513;28;20050;-65
2023/07/27 07:21:49;;;;;;;11.68;6.43;;;16.30;99.90;;;;;;4990451;28;20057;-65
2023/07/27 07:24:15;;;;;;;9.45;6.03;;;16.20;99.90;;;;;;4990156;28;20493;-65
2023/07/27 07:26:40;;;;;;;11.95;7.50;;;16.00;99.90;;;;;;4981504;28;20031;-65
2023/07/27 07:29:07;;;;;;;9.10;6.35;;;15.80;87.50;;;;;;4976283;28;20053;-66
2023/07/27 07:31:33;;;;;;;9.85;5.70;;;16.30;87.80;;;;;;4980435;28;20034;-66
2023/07/27 07:33:59;;;;;;;11.55;6.35;;;16.20;90.00;;;;;;4983982;28;20070;-66
2023/07/27 07:36:25;;;;;;;9.95;6.10;;;16.50;87.70;;;;;;4990849;28;20070;-65
2023/07/27 07:38:51;;;;;;;9.02;5.15;;;16.00;84.10;;;;;;4993636;28;20117;-65
2023/07/27 07:41:17;;;;;;;8.73;5.20;;;15.90;74.80;;;;;;4989844;28;20042;-65
2023/07/27 07:43:43;;;;;;;9.57;5.90;;;15.80;68.60;;;;;;4988446;28;20489;-64
2023/07/27 07:46:12;;;;;;;8.55;5.75;;;15.70;71.40;;;;;;4989799;28;20057;-65
2023/07/27 07:48:38;;;;;;;9.07;5.57;;;16.20;71.30;;;;;;4988002;28;20049;-65
2023/07/27 07:51:11;;;;;;;7.13;4.68;;;16.00;63.30;;;;;;4988602;28;20042;-66
2023/07/27 07:53:37;;;;;;;7.30;4.60;;;16.60;64.60;;;;;;4989877;28;20042;-65
2023/07/27 07:56:03;;;;;;;8.50;5.15;;;16.30;54.80;;;;;;4989911;28;20046;-66
2023/07/27 07:58:32;;;;;;;8.52;5.07;;;16.00;57.00;;;;;;4988867;28;20158;-66
2023/07/27 08:00:57;;;;;;;7.75;5.13;;;16.50;60.60;;;;;;4985357;28;20489;-65
2023/07/27 08:03:23;;;;;;;7.95;4.72;;;16.40;57.10;;;;;;4986252;28;20053;-65
2023/07/27 08:05:48;;;;;;;8.45;5.00;;;16.50;70.40;;;;;;4986546;28;20114;-65
2023/07/27 08:08:14;;;;;;;6.90;4.38;;;16.30;71.30;;;;;;4982335;28;20121;-66
2023/07/27 08:10:40;;;;;;;8.75;4.72;;;16.50;70.40;;;;;;4986625;28;20460;-66
2023/07/27 08:13:06;;;;;;;7.80;4.53;;;16.40;84.80;;;;;;4994739;28;20407;-66
2023/07/27 08:15:31;;;;;;;7.82;4.93;;;16.40;77.50;;;;;;4991774;28;20042;-66
2023/07/27 08:17:57;;;;;;;8.65;5.15;;;16.40;89.50;;;;;;4993627;28;20061;-65
2023/07/27 08:20:23;;;;;;;7.05;4.03;;;16.40;93.40;;;;;;4993675;28;20496;-65
2023/07/27 08:22:48;;;;;;;6.97;4.30;;;16.40;97.50;;;;;;4991378;28;20066;-66
2023/07/27 08:25:17;;;;;;;7.30;4.20;;;16.60;97.50;;;;;;4990796;28;20560;-66
2023/07/27 08:27:42;;;;;;;5.68;3.25;;;15.80;99.90;;;;;;4988631;28;20030;-66
2023/07/27 08:30:08;;;;;;;5.80;3.50;;;16.00;99.90;;;;;;4993744;28;20073;-66
2023/07/27 08:32:34;;;;;;;8.00;3.70;;;16.60;99.90;;;;;;4993578;28;20042;-66
2023/07/27 08:35:00;;;;;;;7.20;3.90;;;16.40;99.90;;;;;;4991709;28;20030;-67
2023/07/27 08:37:26;;;;;;;6.43;3.63;;;;;;;;;;4984610;28;20059;-65
2023/07/27 08:39:52;;;;;;;5.88;3.10;;;16.50;99.90;;;;;;4989433;28;20042;-66
2023/07/27 08:42:19;;;;;;;5.25;2.92;;;16.70;99.90;;;;;;4986682;28;20049;-66
2023/07/27 08:44:45;;;;;;;4.97;2.58;;;16.50;99.90;;;;;;4989323;28;20539;-66
2023/07/27 08:47:11;;;;;;;5.30;2.45;;;16.70;99.90;;;;;;4992091;28;20555;-67
2023/07/27 08:49:38;;;;;;;5.35;2.60;;;16.80;99.90;;;;;;4990793;28;20035;-66
2023/07/27 08:52:05;;;;;;;5.38;2.58;;;16.30;99.90;;;;;;4984667;28;20034;-66
2023/07/27 08:54:31;;;;;;;5.75;2.42;;;16.50;99.90;;;;;;4993846;28;20495;-66
2023/07/27 08:56:56;;;;;;;5.57;2.60;;;16.60;99.90;;;;;;4992599;28;20092;-66
2023/07/27 08:59:25;;;;;;;5.70;2.88;;;16.20;99.90;;;;;;4978979;28;20050;-65
2023/07/27 09:01:51;;;;;;;5.25;2.78;;;16.30;99.90;;;;;;4987890;28;20066;-66
2023/07/27 09:04:17;;;;;;;6.63;3.10;;;15.90;99.90;;;;;;4985988;28;20059;-66
2023/07/27 09:06:49;;;;;;;5.55;3.00;;;16.10;99.90;;;;;;4985789;28;20039;-66
2023/07/27 09:09:32;;;;;;;5.00;2.67;;;16.00;99.90;;;;;;4979656;28;20038;-65
2023/07/27 09:11:58;;;;;;;5.80;3.13;;;16.30;99.90;;;;;;4972890;28;20389;-66
2023/07/27 09:14:24;;;;;;;5.45;3.03;;;16.30;99.90;;;;;;4991747;28;20042;-66
2023/07/27 09:16:50;;;;;;;5.53;3.13;;;16.30;99.90;;;;;;4991778;28;20277;-65
2023/07/27 09:19:17;;;;;;;5.45;3.00;;;16.80;99.90;;;;;;4990771;28;20508;-65
2023/07/27 09:21:52;;;;;;;6.13;3.90;;;16.00;99.90;;;;;;4992347;28;20464;-65
2023/07/27 09:24:18;;;;;;;5.75;3.20;;;16.50;99.90;;;;;;4992382;28;20034;-66
2023/07/27 09:26:49;;;;;;;6.13;3.90;;;16.70;99.90;;;;;;4991720;28;20039;-65
2023/07/27 09:29:17;;;;;;;5.85;3.45;;;16.30;99.90;;;;;;4991962;28;20072;-66
2023/07/27 09:31:57;;;;;;;6.65;3.85;;;16.40;99.90;;;;;;4981469;28;20050;-66
2023/07/27 09:34:23;;;;;;;6.90;4.10;;;16.40;99.90;;;;;;4987975;28;20045;-65
2023/07/27 09:36:49;;;;;;;6.72;4.30;;;16.20;99.90;;;;;;4982071;28;20122;-65
2023/07/27 09:39:17;;;;;;;6.72;4.00;;;16.80;99.90;;;;;;4986370;28;20070;-65
2023/07/27 09:41:44;;;;;;;6.63;3.58;;;16.80;99.90;;;;;;4989618;28;20045;-65
2023/07/27 09:44:15;;;;;;;6.93;4.45;;;16.70;99.90;;;;;;4991508;28;20070;-64
2023/07/27 09:46:41;;;;;;;7.07;4.45;;;16.90;99.90;;;;;;4991417;28;20510;-64
2023/07/27 09:49:08;;;;;;;6.35;4.22;;;16.40;99.90;;;;;;4983036;28;20489;-65
2023/07/27 09:51:34;;;;;;;6.65;3.95;;;17.20;99.90;;;;;;4988310;28;20034;-64
2023/07/27 09:54:00;;;;;;;7.60;4.38;;;16.90;99.90;;;;;;4966149;28;20545;-65
2023/07/27 09:56:27;;;;;;;9.73;4.13;;;16.90;99.90;;;;;;4980329;28;20117;-65
2023/07/27 09:58:53;;;;;;;6.72;4.80;;;16.70;99.90;;;;;;4990052;28;21125;-64
2023/07/27 10:01:19;;;;;;;6.30;4.25;;;16.50;99.90;;;;;;4990844;28;20062;-65
2023/07/27 10:03:45;;;;;;;6.28;4.20;;;16.80;99.90;;;;;;4995761;28;20042;-65
2023/07/27 10:06:16;;;;;;;6.40;4.15;;;17.00;99.90;;;;;;4989290;28;20034;-63
2023/07/27 10:08:42;;;;;;;6.32;4.20;;;16.90;99.90;;;;;;4988296;28;20104;-63
2023/07/27 10:11:08;;;;;;;6.18;4.55;;;17.60;99.90;;;;;;4985028;28;20125;-64
2023/07/27 10:13:39;;;;;;;7.43;5.13;;;17.20;99.90;;;;;;4982331;28;20114;-64
2023/07/27 10:16:10;;;;;;;8.07;5.20;;;17.30;99.90;;;;;;4984127;28;20038;-63
2023/07/27 10:18:41;;;;;;;7.60;5.13;;;17.50;99.90;;;;;;4987607;28;20447;-64
2023/07/27 10:21:28;;;;;;;6.20;4.70;;;18.00;99.90;;;;;;4980729;28;20042;-64
2023/07/27 10:23:56;;;;;;;6.93;4.75;;;17.80;99.90;;;;;;4991134;28;20396;-64
2023/07/27 10:26:42;;;;;;;7.28;5.20;;;16.90;99.90;;;;;;4991162;28;20035;-64
2023/07/27 10:29:15;;;;;;;8.68;5.40;;;17.40;99.90;;;;;;4984152;28;20042;-64
2023/07/27 10:31:44;;;;;;;8.35;5.60;;;17.80;99.90;;;;;;4990377;28;20089;-63
2023/07/27 10:34:14;;;;;;;8.30;5.38;;;17.70;99.90;;;;;;4984224;28;20049;-63
2023/07/27 10:36:51;;;;;;;8.85;5.78;;;17.10;99.90;;;;;;4982123;28;20042;-63
2023/07/27 10:39:19;;;;;;;7.22;5.38;;;17.70;99.90;;;;;;4983721;28;20046;-63
2023/07/27 10:42:24;;;;;;;7.55;5.63;;;17.90;99.90;;;;;;4985019;28;20042;-64
2023/07/27 10:44:54;;;;;;;7.43;5.90;;;17.20;99.90;;;;;;4979327;28;20354;-63
2023/07/27 10:47:37;;;;;;;8.63;6.30;;;17.00;99.90;;;;;;4990700;28;20035;-63
2023/07/27 10:50:03;;;;;;;10.15;7.05;;;17.30;99.90;;;;;;4980937;28;20121;-63
2023/07/27 10:52:36;;;;;;;8.43;6.80;;;17.00;99.90;;;;;;4990792;28;20045;-63
2023/07/27 10:55:06;;;;;;;8.75;6.57;;;17.60;99.90;;;;;;4982439;28;20039;-64
2023/07/27 10:57:33;;;;;;;9.07;6.65;;;17.10;99.90;;;;;;4989234;28;20042;-62
2023/07/27 11:00:00;;;;;;;10.43;7.32;;;17.20;99.90;;;;;;4987190;28;20421;-62
2023/07/27 11:02:34;;;;;;;8.30;6.63;;;17.40;99.90;;;;;;4987258;28;20037;-63
2023/07/27 11:05:02;;;;;;;8.30;7.25;;;17.60;99.90;;;;;;4986781;28;20070;-64
2023/07/27 11:07:33;;;;;;;8.45;7.05;;;17.80;99.90;;;;;;4981943;28;20480;-64
2023/07/27 11:10:03;;;;;;;8.50;6.80;;;17.50;99.90;;;;;;4990470;28;20042;-62
2023/07/27 11:12:29;;;;;;;9.25;7.05;;;17.70;99.90;;;;;;4982876;28;20050;-63
2023/07/27 11:14:55;;;;;;;10.90;8.38;;;17.90;99.90;;;;;;4983137;28;20041;-63
2023/07/27 11:17:22;;;;;;;9.98;7.63;;;17.60;99.90;;;;;;4987887;28;20038;-63
2023/07/27 11:19:50;;;;;;;9.18;7.75;;;17.20;99.90;;;;;;4980803;28;20492;-63
2023/07/27 11:22:16;;;;;;;9.88;8.00;;;17.50;99.90;;;;;;4985934;28;20037;-64
2023/07/27 11:24:41;;;;;;;9.32;7.78;;;18.30;99.90;;;;;;4986482;28;20048;-63
2023/07/27 11:27:09;;;;;;;10.15;7.82;;;18.50;99.90;;;;;;4979657;28;20492;-63
2023/07/27 11:29:43;;;;;;;10.35;8.00;;;18.30;99.90;;;;;;4982225;28;20044;-62
2023/07/27 11:32:08;;;;;;;10.57;8.02;;;18.30;99.90;;;;;;4986096;28;20129;-63
2023/07/27 11:34:35;;;;;;;10.07;7.47;;;19.10;99.90;;;;;;4989675;28;20097;-63
2023/07/27 11:37:01;;;;;;;8.82;7.22;;;18.10;99.90;;;;;;4989754;28;20113;-63
2023/07/27 11:39:27;;;;;;;9.65;7.40;;;18.40;99.90;;;;;;4988767;28;20505;-63
2023/07/27 11:41:53;;;;;;;7.78;6.38;;;17.80;99.90;;;;;;4990506;28;20055;-64
2023/07/27 11:44:20;;;;;;;7.60;5.90;;;18.70;99.90;;;;;;4988423;28;20177;-62
2023/07/27 11:46:49;;;;;;;8.25;6.32;;;18.60;99.90;;;;;;4972970;28;20038;-63
2023/07/27 11:49:15;;;;;;;8.02;6.38;;;18.20;99.90;;;;;;4986421;28;20049;-63
2023/07/27 11:51:43;;;;;;;7.95;6.25;;;18.00;99.90;;;;;;4981994;28;20448;-63
2023/07/27 11:54:09;;;;;;;7.80;5.90;;;18.50;99.90;;;;;;4981709;28;20034;-63
2023/07/27 11:56:38;;;;;;;9.38;6.28;;;18.20;99.90;;;;;;4981686;28;20575;-64
2023/07/27 11:59:07;;;;;;;7.05;5.03;;;18.80;99.90;;;;;;4978677;28;20520;-64
2023/07/27 12:01:34;;;;;;;8.20;5.60;;;18.90;99.90;;;;;;4988936;28;20084;-63
2023/07/27 12:04:01;;;;;;;7.75;5.53;;;18.90;99.90;;;;;;4981553;28;20039;-64
2023/07/27 12:06:28;;;;;;;7.18;5.10;;;18.30;99.90;;;;;;4989662;28;20034;-63
2023/07/27 12:08:55;;;;;;;10.05;5.55;;;18.20;99.90;;;;;;4988365;28;20050;-63
2023/07/27 12:11:27;;;;;;;7.25;4.78;;;19.00;99.90;;;;;;4985738;28;20034;-62
2023/07/27 12:13:53;;;;;;;7.97;5.80;;;18.80;99.90;;;;;;4989623;28;20038;-62
2023/07/27 12:16:19;;;;;;;6.47;4.13;;;19.30;99.90;;;;;;4989664;28;20034;-63
2023/07/27 12:18:45;;;;;;;6.90;4.40;;;18.60;99.90;;;;;;4989561;28;20046;-64
2023/07/27 12:21:11;;;;;;;5.53;2.88;;;18.80;99.90;;;;;;4989377;28;20034;-63
2023/07/27 12:23:38;;;;;;;4.80;2.30;;;18.60;99.90;;;;;;4983169;28;20234;-63
2023/07/27 12:26:03;;;;;;;5.20;2.38;;;18.60;99.90;;;;;;4988315;28;20068;-63
2023/07/27 12:28:31;;;;;;;5.78;2.20;;;18.80;99.90;;;;;;4982664;28;20435;-64
2023/07/27 12:30:57;;;;;;;5.00;2.58;;;18.80;99.90;;;;;;4982705;28;20496;-64
2023/07/27 12:33:26;;;;;;;5.10;2.38;;;18.60;99.90;;;;;;4989441;28;20034;-63
2023/07/27 12:35:52;;;;;;;4.97;2.20;;;18.90;99.90;;;;;;4980191;28;20106;-63
2023/07/27 12:38:19;;;;;;;4.47;1.95;;;19.20;99.90;;;;;;4971765;28;20054;-63
2023/07/27 12:40:46;;;;;;;3.97;1.58;;;18.90;99.90;;;;;;4989585;28;20038;-63
2023/07/27 12:43:12;;;;;;;3.67;1.30;;;19.00;99.90;;;;;;4982950;28;20045;-64
2023/07/27 12:45:39;;;;;;;3.20;1.23;;;18.90;99.90;;;;;;4975018;28;20445;-63